sensor_id;sensor_type;location;lat;lon;timestamp;P1;durP1;ratioP1;P2;durP2;ratioP2
9310;SDS011;4694;52.464;13.480;2023-10-09T00:00:34;2.97;;;1.55;;
9310;SDS011;4694;52.464;13.480;2023-10-09T00:03:26;3.15;;;1.80;;
9310;SDS011;4694;52.464;13.480;2023-10-09T00:05:53;6.10;;;3.65;;
9310;SDS011;4694;52.464;13.480;2023-10-09T00:08:20;5.60;;;2.53;;
9310;SDS011;4694;52.464;13.480;2023-10-09T00:10:50;3.45;;;1.98;;
9310;SDS011;4694;52.464;13.480;2023-10-09T00:15:54;2.15;;;1.65;;
9310;SDS011;4694;52.464;13.480;2023-10-09T00:18:25;4.68;;;1.60;;
9310;SDS011;4694;52.464;13.480;2023-10-09T00:20:56;2.88;;;1.98;;
9310;SDS011;4694;52.464;13.480;2023-10-09T00:23:35;3.67;;;1.77;;
9310;SDS011;4694;52.464;13.480;2023-10-09T00:26:02;3.35;;;1.63;;
9310;SDS011;4694;52.464;13.480;2023-10-09T00:28:35;2.78;;;1.90;;
9310;SDS011;4694;52.464;13.480;2023-10-09T00:31:05;4.90;;;1.58;;
9310;SDS011;4694;52.464;13.480;2023-10-09T00:33:32;6.30;;;2.40;;
9310;SDS011;4694;52.464;13.480;2023-10-09T00:36:01;3.05;;;2.05;;
9310;SDS011;4694;52.464;13.480;2023-10-09T00:38:34;5.00;;;2.10;;
9310;SDS011;4694;52.464;13.480;2023-10-09T00:41:05;6.13;;;2.67;;
9310;SDS011;4694;52.464;13.480;2023-10-09T00:43:44;3.38;;;1.63;;
9310;SDS011;4694;52.464;13.480;2023-10-09T00:46:12;4.63;;;1.92;;
9310;SDS011;4694;52.464;13.480;2023-10-09T00:48:49;6.20;;;2.83;;
9310;SDS011;4694;52.464;13.480;2023-10-09T00:51:19;4.40;;;1.83;;
9310;SDS011;4694;52.464;13.480;2023-10-09T00:53:48;4.45;;;2.10;;
9310;SDS011;4694;52.464;13.480;2023-10-09T00:56:16;3.50;;;1.80;;
9310;SDS011;4694;52.464;13.480;2023-10-09T00:58:54;6.63;;;2.20;;
9310;SDS011;4694;52.464;13.480;2023-10-09T01:01:28;3.40;;;1.70;;
9310;SDS011;4694;52.464;13.480;2023-10-09T01:04:02;2.78;;;1.48;;
9310;SDS011;4694;52.464;13.480;2023-10-09T01:06:40;5.00;;;1.73;;
9310;SDS011;4694;52.464;13.480;2023-10-09T01:09:10;4.82;;;2.08;;
9310;SDS011;4694;52.464;13.480;2023-10-09T01:11:40;3.88;;;2.30;;
9310;SDS011;4694;52.464;13.480;2023-10-09T01:14:28;3.42;;;1.67;;
9310;SDS011;4694;52.464;13.480;2023-10-09T01:16:57;3.10;;;1.73;;
9310;SDS011;4694;52.464;13.480;2023-10-09T01:19:25;3.80;;;1.98;;
9310;SDS011;4694;52.464;13.480;2023-10-09T01:21:54;3.60;;;1.80;;
9310;SDS011;4694;52.464;13.480;2023-10-09T01:24:28;5.72;;;3.60;;
9310;SDS011;4694;52.464;13.480;2023-10-09T01:26:57;2.92;;;2.00;;
9310;SDS011;4694;52.464;13.480;2023-10-09T01:29:24;3.60;;;1.75;;
9310;SDS011;4694;52.464;13.480;2023-10-09T01:31:53;4.38;;;2.88;;
9310;SDS011;4694;52.464;13.480;2023-10-09T01:34:21;4.97;;;2.28;;
9310;SDS011;4694;52.464;13.480;2023-10-09T01:36:51;4.32;;;2.40;;
9310;SDS011;4694;52.464;13.480;2023-10-09T01:39:20;13.48;;;3.20;;
9310;SDS011;4694;52.464;13.480;2023-10-09T01:41:53;4.00;;;2.50;;
9310;SDS011;4694;52.464;13.480;2023-10-09T01:44:25;4.65;;;2.47;;
9310;SDS011;4694;52.464;13.480;2023-10-09T01:46:55;2.92;;;1.83;;
9310;SDS011;4694;52.464;13.480;2023-10-09T01:49:23;3.80;;;2.38;;
9310;SDS011;4694;52.464;13.480;2023-10-09T01:51:57;6.53;;;2.38;;
9310;SDS011;4694;52.464;13.480;2023-10-09T01:54:28;4.32;;;2.58;;
9310;SDS011;4694;52.464;13.480;2023-10-09T01:57:07;2.97;;;2.42;;
9310;SDS011;4694;52.464;13.480;2023-10-09T01:59:38;2.45;;;2.13;;
9310;SDS011;4694;52.464;13.480;2023-10-09T02:02:10;5.00;;;1.73;;
9310;SDS011;4694;52.464;13.480;2023-10-09T02:04:56;5.72;;;2.80;;
9310;SDS011;4694;52.464;13.480;2023-10-09T02:07:49;3.90;;;1.92;;
9310;SDS011;4694;52.464;13.480;2023-10-09T02:10:17;2.42;;;2.20;;
9310;SDS011;4694;52.464;13.480;2023-10-09T02:12:52;4.63;;;2.72;;
9310;SDS011;4694;52.464;13.480;2023-10-09T02:15:22;4.53;;;2.25;;
9310;SDS011;4694;52.464;13.480;2023-10-09T02:18:06;6.03;;;3.35;;
9310;SDS011;4694;52.464;13.480;2023-10-09T02:20:43;7.50;;;2.10;;
9310;SDS011;4694;52.464;13.480;2023-10-09T02:23:11;4.22;;;2.15;;
9310;SDS011;4694;52.464;13.480;2023-10-09T02:25:39;4.72;;;2.58;;
9310;SDS011;4694;52.464;13.480;2023-10-09T02:28:12;5.55;;;3.42;;
9310;SDS011;4694;52.464;13.480;2023-10-09T02:30:43;5.15;;;2.60;;
9310;SDS011;4694;52.464;13.480;2023-10-09T02:33:12;6.93;;;3.47;;
9310;SDS011;4694;52.464;13.480;2023-10-09T02:35:43;3.60;;;2.30;;
9310;SDS011;4694;52.464;13.480;2023-10-09T02:38:17;5.72;;;3.63;;
9310;SDS011;4694;52.464;13.480;2023-10-09T02:40:48;4.93;;;2.63;;
9310;SDS011;4694;52.464;13.480;2023-10-09T02:43:46;4.85;;;2.78;;
9310;SDS011;4694;52.464;13.480;2023-10-09T02:46:15;5.90;;;2.72;;
9310;SDS011;4694;52.464;13.480;2023-10-09T02:48:46;5.78;;;3.40;;
9310;SDS011;4694;52.464;13.480;2023-10-09T02:51:16;6.00;;;3.60;;
9310;SDS011;4694;52.464;13.480;2023-10-09T02:53:57;6.63;;;3.80;;
9310;SDS011;4694;52.464;13.480;2023-10-09T02:56:32;7.68;;;3.97;;
9310;SDS011;4694;52.464;13.480;2023-10-09T02:59:08;10.43;;;3.67;;
9310;SDS011;4694;52.464;13.480;2023-10-09T03:01:37;11.23;;;3.88;;
9310;SDS011;4694;52.464;13.480;2023-10-09T03:04:04;6.85;;;4.20;;
9310;SDS011;4694;52.464;13.480;2023-10-09T03:06:31;7.72;;;4.10;;
9310;SDS011;4694;52.464;13.480;2023-10-09T03:08:59;10.73;;;4.18;;
9310;SDS011;4694;52.464;13.480;2023-10-09T03:11:26;14.93;;;4.40;;
9310;SDS011;4694;52.464;13.480;2023-10-09T03:13:52;9.15;;;4.57;;
9310;SDS011;4694;52.464;13.480;2023-10-09T03:16:22;13.95;;;5.45;;
9310;SDS011;4694;52.464;13.480;2023-10-09T03:18:49;10.77;;;4.97;;
9310;SDS011;4694;52.464;13.480;2023-10-09T03:21:19;9.60;;;4.80;;
9310;SDS011;4694;52.464;13.480;2023-10-09T03:23:46;11.95;;;5.07;;
9310;SDS011;4694;52.464;13.480;2023-10-09T03:26:14;7.25;;;4.47;;
9310;SDS011;4694;52.464;13.480;2023-10-09T03:28:42;8.95;;;4.70;;
9310;SDS011;4694;52.464;13.480;2023-10-09T03:31:10;13.82;;;5.82;;
9310;SDS011;4694;52.464;13.480;2023-10-09T03:33:38;8.70;;;5.50;;
9310;SDS011;4694;52.464;13.480;2023-10-09T03:36:05;10.07;;;4.47;;
9310;SDS011;4694;52.464;13.480;2023-10-09T03:38:34;7.90;;;5.43;;
9310;SDS011;4694;52.464;13.480;2023-10-09T03:41:01;8.38;;;4.75;;
9310;SDS011;4694;52.464;13.480;2023-10-09T03:43:31;7.97;;;4.65;;
9310;SDS011;4694;52.464;13.480;2023-10-09T03:46:02;10.63;;;5.13;;
9310;SDS011;4694;52.464;13.480;2023-10-09T03:48:30;11.40;;;5.45;;
9310;SDS011;4694;52.464;13.480;2023-10-09T03:51:00;14.10;;;6.10;;
9310;SDS011;4694;52.464;13.480;2023-10-09T03:53:34;10.50;;;5.78;;
9310;SDS011;4694;52.464;13.480;2023-10-09T03:56:02;10.05;;;5.53;;
9310;SDS011;4694;52.464;13.480;2023-10-09T03:58:30;10.18;;;5.22;;
9310;SDS011;4694;52.464;13.480;2023-10-09T04:00:58;8.50;;;4.82;;
9310;SDS011;4694;52.464;13.480;2023-10-09T04:03:25;8.77;;;5.68;;
9310;SDS011;4694;52.464;13.480;2023-10-09T04:05:52;8.05;;;5.25;;
9310;SDS011;4694;52.464;13.480;2023-10-09T04:08:20;11.45;;;6.45;;
9310;SDS011;4694;52.464;13.480;2023-10-09T04:10:53;13.23;;;6.22;;
9310;SDS011;4694;52.464;13.480;2023-10-09T04:13:20;11.85;;;5.47;;
9310;SDS011;4694;52.464;13.480;2023-10-09T04:15:57;9.85;;;5.93;;
9310;SDS011;4694;52.464;13.480;2023-10-09T04:18:27;10.73;;;6.53;;
9310;SDS011;4694;52.464;13.480;2023-10-09T04:20:58;11.00;;;5.95;;
9310;SDS011;4694;52.464;13.480;2023-10-09T04:23:45;11.85;;;6.05;;
9310;SDS011;4694;52.464;13.480;2023-10-09T04:26:47;14.13;;;8.07;;
9310;SDS011;4694;52.464;13.480;2023-10-09T04:29:18;10.30;;;6.28;;
9310;SDS011;4694;52.464;13.480;2023-10-09T04:31:51;8.20;;;5.93;;
9310;SDS011;4694;52.464;13.480;2023-10-09T04:34:19;12.57;;;5.93;;
9310;SDS011;4694;52.464;13.480;2023-10-09T04:36:55;14.60;;;6.20;;
9310;SDS011;4694;52.464;13.480;2023-10-09T04:39:26;10.73;;;7.18;;
9310;SDS011;4694;52.464;13.480;2023-10-09T04:42:13;11.20;;;6.53;;
9310;SDS011;4694;52.464;13.480;2023-10-09T04:45:02;8.75;;;6.10;;
9310;SDS011;4694;52.464;13.480;2023-10-09T04:47:45;10.85;;;6.65;;
9310;SDS011;4694;52.464;13.480;2023-10-09T04:50:31;13.95;;;7.00;;
9310;SDS011;4694;52.464;13.480;2023-10-09T04:53:44;14.85;;;7.38;;
9310;SDS011;4694;52.464;13.480;2023-10-09T04:56:16;12.45;;;7.55;;
9310;SDS011;4694;52.464;13.480;2023-10-09T04:58:43;11.93;;;7.53;;
9310;SDS011;4694;52.464;13.480;2023-10-09T05:01:11;8.50;;;6.97;;
9310;SDS011;4694;52.464;13.480;2023-10-09T05:04:00;10.07;;;5.40;;
9310;SDS011;4694;52.464;13.480;2023-10-09T05:06:29;9.38;;;5.32;;
9310;SDS011;4694;52.464;13.480;2023-10-09T05:09:19;9.85;;;5.25;;
9310;SDS011;4694;52.464;13.480;2023-10-09T05:11:47;10.20;;;5.50;;
9310;SDS011;4694;52.464;13.480;2023-10-09T05:14:37;12.27;;;6.00;;
9310;SDS011;4694;52.464;13.480;2023-10-09T05:17:04;8.85;;;6.53;;
9310;SDS011;4694;52.464;13.480;2023-10-09T05:19:40;10.25;;;5.78;;
9310;SDS011;4694;52.464;13.480;2023-10-09T05:22:19;10.13;;;6.13;;
9310;SDS011;4694;52.464;13.480;2023-10-09T05:25:01;9.52;;;5.05;;
9310;SDS011;4694;52.464;13.480;2023-10-09T05:27:40;9.85;;;6.53;;
9310;SDS011;4694;52.464;13.480;2023-10-09T05:30:12;7.78;;;4.68;;
9310;SDS011;4694;52.464;13.480;2023-10-09T05:32:49;8.82;;;5.30;;
9310;SDS011;4694;52.464;13.480;2023-10-09T05:35:20;5.68;;;4.63;;
9310;SDS011;4694;52.464;13.480;2023-10-09T05:37:55;14.32;;;7.10;;
9310;SDS011;4694;52.464;13.480;2023-10-09T05:40:28;9.13;;;4.97;;
9310;SDS011;4694;52.464;13.480;2023-10-09T05:42:58;9.27;;;5.75;;
9310;SDS011;4694;52.464;13.480;2023-10-09T05:45:24;13.50;;;5.55;;
9310;SDS011;4694;52.464;13.480;2023-10-09T05:48:09;9.48;;;5.30;;
9310;SDS011;4694;52.464;13.480;2023-10-09T05:53:30;8.40;;;4.50;;
9310;SDS011;4694;52.464;13.480;2023-10-09T05:56:22;7.65;;;4.63;;
9310;SDS011;4694;52.464;13.480;2023-10-09T05:59:09;10.60;;;4.82;;
9310;SDS011;4694;52.464;13.480;2023-10-09T06:02:09;8.10;;;4.07;;
9310;SDS011;4694;52.464;13.480;2023-10-09T06:04:53;9.77;;;4.65;;
9310;SDS011;4694;52.464;13.480;2023-10-09T06:07:20;6.35;;;4.43;;
9310;SDS011;4694;52.464;13.480;2023-10-09T06:10:06;8.52;;;4.93;;
9310;SDS011;4694;52.464;13.480;2023-10-09T06:12:55;9.70;;;5.00;;
9310;SDS011;4694;52.464;13.480;2023-10-09T06:15:31;8.88;;;5.65;;
9310;SDS011;4694;52.464;13.480;2023-10-09T06:18:16;8.75;;;4.40;;
9310;SDS011;4694;52.464;13.480;2023-10-09T06:20:57;7.80;;;4.13;;
9310;SDS011;4694;52.464;13.480;2023-10-09T06:23:34;8.18;;;5.40;;
9310;SDS011;4694;52.464;13.480;2023-10-09T06:26:33;9.95;;;4.90;;
9310;SDS011;4694;52.464;13.480;2023-10-09T06:29:00;6.70;;;4.05;;
9310;SDS011;4694;52.464;13.480;2023-10-09T06:32:01;6.15;;;3.95;;
9310;SDS011;4694;52.464;13.480;2023-10-09T06:34:59;8.43;;;4.45;;
9310;SDS011;4694;52.464;13.480;2023-10-09T06:37:41;9.82;;;5.50;;
9310;SDS011;4694;52.464;13.480;2023-10-09T06:40:21;11.45;;;5.03;;
9310;SDS011;4694;52.464;13.480;2023-10-09T06:45:34;12.32;;;5.28;;
9310;SDS011;4694;52.464;13.480;2023-10-09T06:48:11;6.10;;;4.63;;
9310;SDS011;4694;52.464;13.480;2023-10-09T06:50:55;11.68;;;5.15;;
9310;SDS011;4694;52.464;13.480;2023-10-09T06:53:28;11.32;;;5.90;;
9310;SDS011;4694;52.464;13.480;2023-10-09T06:56:23;11.18;;;4.82;;
9310;SDS011;4694;52.464;13.480;2023-10-09T06:59:12;8.40;;;4.63;;
9310;SDS011;4694;52.464;13.480;2023-10-09T07:01:46;21.90;;;6.03;;
9310;SDS011;4694;52.464;13.480;2023-10-09T07:04:34;13.55;;;6.75;;
9310;SDS011;4694;52.464;13.480;2023-10-09T07:07:12;10.93;;;6.63;;
9310;SDS011;4694;52.464;13.480;2023-10-09T07:09:41;8.70;;;6.32;;
9310;SDS011;4694;52.464;13.480;2023-10-09T07:12:10;12.48;;;8.63;;
9310;SDS011;4694;52.464;13.480;2023-10-09T07:14:39;12.27;;;7.40;;
9310;SDS011;4694;52.464;13.480;2023-10-09T07:17:25;9.68;;;7.25;;
9310;SDS011;4694;52.464;13.480;2023-10-09T07:20:10;12.73;;;6.88;;
9310;SDS011;4694;52.464;13.480;2023-10-09T07:22:59;11.98;;;6.97;;
9310;SDS011;4694;52.464;13.480;2023-10-09T07:25:38;16.23;;;7.32;;
9310;SDS011;4694;52.464;13.480;2023-10-09T07:28:20;14.40;;;6.47;;
9310;SDS011;4694;52.464;13.480;2023-10-09T07:31:07;12.40;;;6.22;;
9310;SDS011;4694;52.464;13.480;2023-10-09T07:33:49;6.20;;;4.00;;
9310;SDS011;4694;52.464;13.480;2023-10-09T07:36:23;5.15;;;3.70;;
9310;SDS011;4694;52.464;13.480;2023-10-09T07:38:59;9.40;;;5.18;;
9310;SDS011;4694;52.464;13.480;2023-10-09T07:41:31;7.35;;;4.80;;
9310;SDS011;4694;52.464;13.480;2023-10-09T07:44:05;7.35;;;4.57;;
9310;SDS011;4694;52.464;13.480;2023-10-09T07:46:46;7.60;;;4.25;;
9310;SDS011;4694;52.464;13.480;2023-10-09T07:49:39;4.90;;;3.15;;
9310;SDS011;4694;52.464;13.480;2023-10-09T07:52:06;7.32;;;3.45;;
9310;SDS011;4694;52.464;13.480;2023-10-09T07:54:33;3.97;;;2.90;;
9310;SDS011;4694;52.464;13.480;2023-10-09T07:57:01;6.18;;;3.70;;
9310;SDS011;4694;52.464;13.480;2023-10-09T07:59:41;5.03;;;3.78;;
9310;SDS011;4694;52.464;13.480;2023-10-09T08:02:19;4.78;;;3.47;;
9310;SDS011;4694;52.464;13.480;2023-10-09T08:04:56;5.90;;;4.10;;
9310;SDS011;4694;52.464;13.480;2023-10-09T08:07:30;6.18;;;4.45;;
9310;SDS011;4694;52.464;13.480;2023-10-09T08:10:03;5.97;;;3.33;;
9310;SDS011;4694;52.464;13.480;2023-10-09T08:12:44;4.85;;;4.35;;
9310;SDS011;4694;52.464;13.480;2023-10-09T08:15:24;6.28;;;4.85;;
9310;SDS011;4694;52.464;13.480;2023-10-09T08:17:59;5.88;;;4.32;;
9310;SDS011;4694;52.464;13.480;2023-10-09T08:20:29;6.63;;;3.63;;
9310;SDS011;4694;52.464;13.480;2023-10-09T08:23:17;6.70;;;4.00;;
9310;SDS011;4694;52.464;13.480;2023-10-09T08:25:58;4.47;;;3.58;;
9310;SDS011;4694;52.464;13.480;2023-10-09T08:28:37;6.70;;;3.47;;
9310;SDS011;4694;52.464;13.480;2023-10-09T08:31:09;7.15;;;3.50;;
9310;SDS011;4694;52.464;13.480;2023-10-09T08:33:59;7.13;;;4.30;;
9310;SDS011;4694;52.464;13.480;2023-10-09T08:36:27;8.95;;;4.72;;
9310;SDS011;4694;52.464;13.480;2023-10-09T08:39:02;5.78;;;4.18;;
9310;SDS011;4694;52.464;13.480;2023-10-09T08:41:41;7.00;;;4.90;;
9310;SDS011;4694;52.464;13.480;2023-10-09T08:44:08;7.30;;;4.60;;
9310;SDS011;4694;52.464;13.480;2023-10-09T08:46:41;7.90;;;4.68;;
9310;SDS011;4694;52.464;13.480;2023-10-09T08:49:11;8.67;;;5.37;;
9310;SDS011;4694;52.464;13.480;2023-10-09T08:51:39;8.18;;;4.47;;
9310;SDS011;4694;52.464;13.480;2023-10-09T08:54:08;7.65;;;5.32;;
9310;SDS011;4694;52.464;13.480;2023-10-09T08:56:36;8.55;;;4.78;;
9310;SDS011;4694;52.464;13.480;2023-10-09T08:59:05;9.65;;;5.40;;
9310;SDS011;4694;52.464;13.480;2023-10-09T09:01:33;9.93;;;5.28;;
9310;SDS011;4694;52.464;13.480;2023-10-09T09:04:00;11.30;;;6.45;;
9310;SDS011;4694;52.464;13.480;2023-10-09T09:06:35;9.43;;;5.60;;
9310;SDS011;4694;52.464;13.480;2023-10-09T09:09:10;8.20;;;5.45;;
9310;SDS011;4694;52.464;13.480;2023-10-09T09:11:41;11.45;;;6.57;;
9310;SDS011;4694;52.464;13.480;2023-10-09T09:14:14;8.18;;;5.38;;
9310;SDS011;4694;52.464;13.480;2023-10-09T09:16:48;8.82;;;5.63;;
9310;SDS011;4694;52.464;13.480;2023-10-09T09:19:15;9.15;;;6.70;;
9310;SDS011;4694;52.464;13.480;2023-10-09T09:21:47;8.48;;;5.70;;
9310;SDS011;4694;52.464;13.480;2023-10-09T09:24:20;12.25;;;6.50;;
9310;SDS011;4694;52.464;13.480;2023-10-09T09:26:57;12.95;;;6.55;;
9310;SDS011;4694;52.464;13.480;2023-10-09T09:29:38;10.95;;;6.50;;
9310;SDS011;4694;52.464;13.480;2023-10-09T09:32:07;10.98;;;7.25;;
9310;SDS011;4694;52.464;13.480;2023-10-09T09:34:43;8.20;;;6.75;;
9310;SDS011;4694;52.464;13.480;2023-10-09T09:37:18;7.78;;;5.18;;
9310;SDS011;4694;52.464;13.480;2023-10-09T09:39:49;7.50;;;4.82;;
9310;SDS011;4694;52.464;13.480;2023-10-09T09:42:17;10.88;;;6.20;;
9310;SDS011;4694;52.464;13.480;2023-10-09T09:44:50;8.93;;;6.32;;
9310;SDS011;4694;52.464;13.480;2023-10-09T09:47:19;16.98;;;7.13;;
9310;SDS011;4694;52.464;13.480;2023-10-09T09:49:52;10.38;;;6.38;;
9310;SDS011;4694;52.464;13.480;2023-10-09T09:52:24;9.38;;;5.95;;
9310;SDS011;4694;52.464;13.480;2023-10-09T09:54:54;10.05;;;6.47;;
9310;SDS011;4694;52.464;13.480;2023-10-09T09:57:23;11.75;;;5.70;;
9310;SDS011;4694;52.464;13.480;2023-10-09T09:59:52;7.90;;;6.78;;
9310;SDS011;4694;52.464;13.480;2023-10-09T10:02:23;10.38;;;6.50;;
9310;SDS011;4694;52.464;13.480;2023-10-09T10:04:55;10.88;;;6.40;;
9310;SDS011;4694;52.464;13.480;2023-10-09T10:07:24;9.75;;;5.85;;
9310;SDS011;4694;52.464;13.480;2023-10-09T10:09:57;11.05;;;6.15;;
9310;SDS011;4694;52.464;13.480;2023-10-09T10:15:25;10.40;;;7.05;;
9310;SDS011;4694;52.464;13.480;2023-10-09T10:18:30;8.73;;;6.60;;
9310;SDS011;4694;52.464;13.480;2023-10-09T10:21:11;8.93;;;6.65;;
9310;SDS011;4694;52.464;13.480;2023-10-09T10:23:41;8.98;;;5.93;;
9310;SDS011;4694;52.464;13.480;2023-10-09T10:26:18;13.27;;;6.78;;
9310;SDS011;4694;52.464;13.480;2023-10-09T10:31:55;13.63;;;8.25;;
9310;SDS011;4694;52.464;13.480;2023-10-09T10:34:23;11.85;;;8.25;;
9310;SDS011;4694;52.464;13.480;2023-10-09T10:36:51;13.95;;;8.20;;
9310;SDS011;4694;52.464;13.480;2023-10-09T10:39:31;1.90;;;1.67;;
9310;SDS011;4694;52.464;13.480;2023-10-09T10:42:09;0.80;;;0.52;;
9310;SDS011;4694;52.464;13.480;2023-10-09T10:44:56;0.77;;;0.70;;
9310;SDS011;4694;52.464;13.480;2023-10-09T10:47:27;0.10;;;0.10;;
9310;SDS011;4694;52.464;13.480;2023-10-09T10:50:00;1.55;;;1.52;;
9310;SDS011;4694;52.464;13.480;2023-10-09T10:52:52;0.10;;;0.10;;
9310;SDS011;4694;52.464;13.480;2023-10-09T10:55:22;0.25;;;0.20;;
9310;SDS011;4694;52.464;13.480;2023-10-09T10:58:14;1.02;;;1.02;;
9310;SDS011;4694;52.464;13.480;2023-10-09T11:00:52;1.70;;;1.60;;
9310;SDS011;4694;52.464;13.480;2023-10-09T11:03:39;1.65;;;1.55;;
9310;SDS011;4694;52.464;13.480;2023-10-09T11:06:34;0.00;;;0.00;;
9310;SDS011;4694;52.464;13.480;2023-10-09T11:09:07;0.22;;;0.22;;
9310;SDS011;4694;52.464;13.480;2023-10-09T11:11:45;0.45;;;0.45;;
9310;SDS011;4694;52.464;13.480;2023-10-09T11:14:14;0.52;;;0.50;;
9310;SDS011;4694;52.464;13.480;2023-10-09T11:16:40;0.20;;;0.20;;
9310;SDS011;4694;52.464;13.480;2023-10-09T11:19:13;0.20;;;0.20;;
9310;SDS011;4694;52.464;13.480;2023-10-09T11:22:05;0.20;;;0.20;;
9310;SDS011;4694;52.464;13.480;2023-10-09T11:24:50;2.22;;;2.13;;
9310;SDS011;4694;52.464;13.480;2023-10-09T11:27:39;0.50;;;0.50;;
9310;SDS011;4694;52.464;13.480;2023-10-09T11:30:15;0.32;;;0.32;;
9310;SDS011;4694;52.464;13.480;2023-10-09T11:32:46;0.55;;;0.55;;
9310;SDS011;4694;52.464;13.480;2023-10-09T11:35:16;0.00;;;0.00;;
9310;SDS011;4694;52.464;13.480;2023-10-09T11:37:56;0.80;;;0.80;;
9310;SDS011;4694;52.464;13.480;2023-10-09T11:40:29;0.60;;;0.60;;
9310;SDS011;4694;52.464;13.480;2023-10-09T11:43:12;0.50;;;0.50;;
9310;SDS011;4694;52.464;13.480;2023-10-09T11:45:39;2.05;;;1.95;;
9310;SDS011;4694;52.464;13.480;2023-10-09T11:48:19;1.42;;;1.42;;
9310;SDS011;4694;52.464;13.480;2023-10-09T11:50:51;0.80;;;0.80;;
9310;SDS011;4694;52.464;13.480;2023-10-09T11:53:21;2.00;;;1.90;;
9310;SDS011;4694;52.464;13.480;2023-10-09T11:56:01;1.80;;;1.70;;
9310;SDS011;4694;52.464;13.480;2023-10-09T11:58:28;1.88;;;1.25;;
9310;SDS011;4694;52.464;13.480;2023-10-09T12:00:54;2.92;;;0.57;;
9310;SDS011;4694;52.464;13.480;2023-10-09T12:03:24;0.10;;;0.10;;
9310;SDS011;4694;52.464;13.480;2023-10-09T12:08:24;0.15;;;0.15;;
9310;SDS011;4694;52.464;13.480;2023-10-09T12:10:54;0.35;;;0.35;;
9310;SDS011;4694;52.464;13.480;2023-10-09T12:13:28;0.47;;;0.47;;
9310;SDS011;4694;52.464;13.480;2023-10-09T12:15:57;0.47;;;0.47;;
9310;SDS011;4694;52.464;13.480;2023-10-09T12:18:26;0.60;;;0.60;;
9310;SDS011;4694;52.464;13.480;2023-10-09T12:20:53;0.52;;;0.52;;
9310;SDS011;4694;52.464;13.480;2023-10-09T12:23:31;0.90;;;0.90;;
9310;SDS011;4694;52.464;13.480;2023-10-09T12:26:00;0.40;;;0.40;;
9310;SDS011;4694;52.464;13.480;2023-10-09T12:28:39;0.35;;;0.35;;
9310;SDS011;4694;52.464;13.480;2023-10-09T12:31:10;5.00;;;1.98;;
9310;SDS011;4694;52.464;13.480;2023-10-09T12:33:40;0.70;;;0.70;;
9310;SDS011;4694;52.464;13.480;2023-10-09T12:36:11;0.55;;;0.55;;
9310;SDS011;4694;52.464;13.480;2023-10-09T12:38:44;0.75;;;0.75;;
9310;SDS011;4694;52.464;13.480;2023-10-09T12:41:15;0.63;;;0.63;;
9310;SDS011;4694;52.464;13.480;2023-10-09T12:43:46;0.35;;;0.35;;
9310;SDS011;4694;52.464;13.480;2023-10-09T12:46:13;1.05;;;1.00;;
9310;SDS011;4694;52.464;13.480;2023-10-09T12:48:41;2.08;;;1.15;;
9310;SDS011;4694;52.464;13.480;2023-10-09T12:51:12;0.75;;;0.75;;
9310;SDS011;4694;52.464;13.480;2023-10-09T12:53:41;0.47;;;0.47;;
9310;SDS011;4694;52.464;13.480;2023-10-09T12:56:10;0.10;;;0.10;;
9310;SDS011;4694;52.464;13.480;2023-10-09T12:58:37;4.68;;;0.77;;
9310;SDS011;4694;52.464;13.480;2023-10-09T13:01:04;0.85;;;0.85;;
9310;SDS011;4694;52.464;13.480;2023-10-09T13:03:36;1.30;;;0.57;;
9310;SDS011;4694;52.464;13.480;2023-10-09T13:06:04;2.25;;;2.15;;
9310;SDS011;4694;52.464;13.480;2023-10-09T13:08:36;5.28;;;2.97;;
9310;SDS011;4694;52.464;13.480;2023-10-09T13:11:07;0.65;;;0.65;;
9310;SDS011;4694;52.464;13.480;2023-10-09T13:13:36;1.50;;;1.45;;
9310;SDS011;4694;52.464;13.480;2023-10-09T13:16:08;0.40;;;0.40;;
9310;SDS011;4694;52.464;13.480;2023-10-09T13:18:38;2.03;;;1.85;;
9310;SDS011;4694;52.464;13.480;2023-10-09T13:21:06;0.25;;;0.25;;
9310;SDS011;4694;52.464;13.480;2023-10-09T13:23:34;0.47;;;0.47;;
9310;SDS011;4694;52.464;13.480;2023-10-09T13:26:09;1.40;;;1.30;;
9310;SDS011;4694;52.464;13.480;2023-10-09T13:28:47;3.30;;;1.40;;
9310;SDS011;4694;52.464;13.480;2023-10-09T13:31:14;2.90;;;1.95;;
9310;SDS011;4694;52.464;13.480;2023-10-09T13:33:44;0.65;;;0.65;;
9310;SDS011;4694;52.464;13.480;2023-10-09T13:36:11;1.40;;;1.38;;
9310;SDS011;4694;52.464;13.480;2023-10-09T13:38:52;0.45;;;0.45;;
9310;SDS011;4694;52.464;13.480;2023-10-09T13:41:20;0.63;;;0.43;;
9310;SDS011;4694;52.464;13.480;2023-10-09T13:43:52;1.00;;;1.00;;
9310;SDS011;4694;52.464;13.480;2023-10-09T13:46:18;0.52;;;0.52;;
9310;SDS011;4694;52.464;13.480;2023-10-09T13:48:45;0.47;;;0.47;;
9310;SDS011;4694;52.464;13.480;2023-10-09T13:51:14;0.75;;;0.75;;
9310;SDS011;4694;52.464;13.480;2023-10-09T13:53:42;5.63;;;2.10;;
9310;SDS011;4694;52.464;13.480;2023-10-09T13:56:11;0.40;;;0.40;;
9310;SDS011;4694;52.464;13.480;2023-10-09T13:58:41;0.95;;;0.95;;
9310;SDS011;4694;52.464;13.480;2023-10-09T14:01:08;0.90;;;0.75;;
9310;SDS011;4694;52.464;13.480;2023-10-09T14:03:35;1.10;;;1.02;;
9310;SDS011;4694;52.464;13.480;2023-10-09T14:06:03;0.43;;;0.43;;
9310;SDS011;4694;52.464;13.480;2023-10-09T14:08:37;0.80;;;0.65;;
9310;SDS011;4694;52.464;13.480;2023-10-09T14:11:07;0.28;;;0.28;;
9310;SDS011;4694;52.464;13.480;2023-10-09T14:13:40;0.20;;;0.20;;
9310;SDS011;4694;52.464;13.480;2023-10-09T14:16:07;2.58;;;2.03;;
9310;SDS011;4694;52.464;13.480;2023-10-09T14:18:48;1.30;;;0.90;;
9310;SDS011;4694;52.464;13.480;2023-10-09T14:21:18;0.87;;;0.87;;
9310;SDS011;4694;52.464;13.480;2023-10-09T14:23:47;0.28;;;0.28;;
9310;SDS011;4694;52.464;13.480;2023-10-09T14:26:13;0.20;;;0.20;;
9310;SDS011;4694;52.464;13.480;2023-10-09T14:28:41;0.68;;;0.68;;
9310;SDS011;4694;52.464;13.480;2023-10-09T14:31:08;0.70;;;0.70;;
9310;SDS011;4694;52.464;13.480;2023-10-09T14:33:37;0.38;;;0.38;;
9310;SDS011;4694;52.464;13.480;2023-10-09T14:36:05;0.75;;;0.75;;
9310;SDS011;4694;52.464;13.480;2023-10-09T14:38:32;2.05;;;1.95;;
9310;SDS011;4694;52.464;13.480;2023-10-09T14:41:03;0.17;;;0.17;;
9310;SDS011;4694;52.464;13.480;2023-10-09T14:43:32;0.10;;;0.10;;
9310;SDS011;4694;52.464;13.480;2023-10-09T14:46:00;0.90;;;0.90;;
9310;SDS011;4694;52.464;13.480;2023-10-09T14:48:29;0.32;;;0.20;;
9310;SDS011;4694;52.464;13.480;2023-10-09T14:51:02;0.65;;;0.65;;
9310;SDS011;4694;52.464;13.480;2023-10-09T14:53:30;4.18;;;1.35;;
9310;SDS011;4694;52.464;13.480;2023-10-09T14:55:59;1.10;;;1.10;;
9310;SDS011;4694;52.464;13.480;2023-10-09T14:58:28;0.05;;;0.05;;
9310;SDS011;4694;52.464;13.480;2023-10-09T15:00:58;0.17;;;0.17;;
9310;SDS011;4694;52.464;13.480;2023-10-09T15:03:43;2.22;;;2.13;;
9310;SDS011;4694;52.464;13.480;2023-10-09T15:06:12;0.30;;;0.30;;
9310;SDS011;4694;52.464;13.480;2023-10-09T15:08:40;2.17;;;0.73;;
9310;SDS011;4694;52.464;13.480;2023-10-09T15:11:06;0.95;;;0.82;;
9310;SDS011;4694;52.464;13.480;2023-10-09T15:13:33;0.93;;;0.90;;
9310;SDS011;4694;52.464;13.480;2023-10-09T15:16:00;1.20;;;1.20;;
9310;SDS011;4694;52.464;13.480;2023-10-09T15:18:30;0.10;;;0.10;;
9310;SDS011;4694;52.464;13.480;2023-10-09T15:20:58;0.10;;;0.10;;
9310;SDS011;4694;52.464;13.480;2023-10-09T15:23:25;0.90;;;0.90;;
9310;SDS011;4694;52.464;13.480;2023-10-09T15:25:51;0.88;;;0.88;;
9310;SDS011;4694;52.464;13.480;2023-10-09T15:28:18;1.35;;;1.35;;
9310;SDS011;4694;52.464;13.480;2023-10-09T15:30:45;0.08;;;0.08;;
9310;SDS011;4694;52.464;13.480;2023-10-09T15:33:13;0.03;;;0.03;;
9310;SDS011;4694;52.464;13.480;2023-10-09T15:35:42;1.80;;;0.75;;
9310;SDS011;4694;52.464;13.480;2023-10-09T15:38:11;0.32;;;0.28;;
9310;SDS011;4694;52.464;13.480;2023-10-09T15:40:39;0.10;;;0.10;;
9310;SDS011;4694;52.464;13.480;2023-10-09T15:43:08;0.63;;;0.63;;
9310;SDS011;4694;52.464;13.480;2023-10-09T15:45:40;0.47;;;0.47;;
9310;SDS011;4694;52.464;13.480;2023-10-09T15:48:09;0.40;;;0.40;;
9310;SDS011;4694;52.464;13.480;2023-10-09T15:50:36;3.97;;;1.83;;
9310;SDS011;4694;52.464;13.480;2023-10-09T15:53:06;0.10;;;0.10;;